Time;durP1;ratioP1;P1;durP2;ratioP2;P2;SDS_P1;SDS_P2;PMS_P1;PMS_P2;Temp;Humidity;BMP_temperature;BMP_pressure;BME280_temperature;BME280_humidity;BME280_pressure;Samples;Min_cycle;Max_cycle;Signal;HPM_P1;HPM_P2
2023/02/02 00:01:24;;;;;;;;;;;;;;;;;;5105645;28;19991;-62
2023/02/02 00:03:50;;;;;;;;;;;;;;;;;;5094144;28;20443;-62
2023/02/02 00:06:16;;;;;;;;;;;;;;;;;;5096410;28;19916;-62
2023/02/02 00:08:42;;;;;;;;;;;;;;;;;;5114158;28;19912;-62
2023/02/02 00:11:08;;;;;;;;;;;;;;;;;;5112470;28;20432;-62
2023/02/02 00:13:34;;;;;;;;;;;;;;;;;;5113674;28;19927;-62
2023/02/02 00:16:00;;;;;;;;;;;;;;;;;;5106210;28;20372;-62
2023/02/02 00:18:26;;;;;;;;;;;;;;;;;;5093852;28;19965;-62
2023/02/02 00:20:52;;;;;;;;;;;;;;;;;;5099160;28;20389;-62
2023/02/02 00:23:18;;;;;;;;;;;;;;;;;;5112629;28;20446;-62
2023/02/02 00:25:44;;;;;;;;;;;;;;;;;;5112805;28;20246;-62
2023/02/02 00:28:10;;;;;;;;;;;;;;;;;;5112939;28;19922;-62
2023/02/02 00:30:36;;;;;;;;;;;;;;;;;;5109216;28;19908;-62
2023/02/02 00:33:02;;;;;;;;;;;;;;;;;;5094600;28;19916;-62
2023/02/02 00:35:28;;;;;;;;;;;;;;;;;;5093410;28;19912;-62
2023/02/02 00:37:54;;;;;;;;;;;;;;;;;;5093408;28;19908;-62
2023/02/02 00:40:20;;;;;;;;;;;;;;;;;;5091947;28;19965;-62
2023/02/02 00:42:49;;;;;;;;;;;;;;;;;;5094429;28;19916;-62
2023/02/02 00:45:15;;;;;;;;;;;;;;;;;;5094211;28;20237;-62
2023/02/02 00:47:41;;;;;;;;;;;;;;;;;;5112934;28;19916;-62
2023/02/02 00:50:07;;;;;;;;;;;;;;;;;;5113278;28;19911;-62
2023/02/02 00:52:33;;;;;;;;;;;;;;;;;;5111451;28;19912;-62
2023/02/02 00:54:59;;;;;;;;;;;;;;;;;;5112942;28;19957;-62
2023/02/02 00:57:24;;;;;;;;;;;;;;;;;;5111287;28;20340;-62
2023/02/02 00:59:50;;;;;;;;;;;;;;;;;;5113127;28;19912;-62
2023/02/02 01:02:16;;;;;;;;;;;;;;;;;;5098092;28;19913;-62
2023/02/02 01:04:42;;;;;;;;;;;;;;;;;;5092877;28;19912;-62
2023/02/02 01:07:08;;;;;;;;;;;;;;;;;;5096291;28;19959;-62
2023/02/02 01:09:34;;;;;;;;;;;;;;;;;;5112814;28;19919;-62
2023/02/02 01:12:00;;;;;;;;;;;;;;;;;;5112437;28;19915;-62
2023/02/02 01:14:26;;;;;;;;;;;;;;;;;;5110273;28;20288;-62
2023/02/02 01:16:52;;;;;;;;;;;;;;;;;;5103648;28;19911;-62
2023/02/02 01:19:18;;;;;;;;;;;;;;;;;;5099155;28;19908;-62
2023/02/02 01:21:44;;;;;;;;;;;;;;;;;;5092791;28;20304;-62
2023/02/02 01:24:10;;;;;;;;;;;;;;;;;;5111655;28;19916;-62
2023/02/02 01:26:36;;;;;;;;;;;;;;;;;;5111469;28;20379;-62
2023/02/02 01:29:01;;;;;;;;;;;;;;;;;;5112962;28;19961;-62
2023/02/02 01:31:27;;;;;;;;;;;;;;;;;;5112945;28;19957;-62
2023/02/02 01:33:53;;;;;;;;;;;;;;;;;;5112677;28;19912;-62
2023/02/02 01:36:19;;;;;;;;;;;;;;;;;;5092224;28;19912;-62
2023/02/02 01:38:45;;;;;;;;;;;;;;;;;;5092300;28;19908;-62
2023/02/02 01:41:11;;;;;;;;;;;;;;;;;;5092378;28;20292;-62
2023/02/02 01:43:37;;;;;;;;;;;;;;;;;;5092594;28;20291;-62
2023/02/02 01:46:03;;;;;;;;;;;;;;;;;;5092013;28;20368;-62
2023/02/02 01:48:29;;;;;;;;;;;;;;;;;;5115491;22;19924;-62
2023/02/02 01:50:55;;;;;;;;;;;;;;;;;;5072998;28;20245;-62
2023/02/02 01:53:21;;;;;;;;;;;;;;;;;;5071929;28;19922;-62
2023/02/02 01:55:47;;;;;;;;;;;;;;;;;;5072133;28;20377;-59
2023/02/02 01:58:12;;;;;;;;;;;;;;;;;;5037795;28;19913;-58
2023/02/02 02:00:38;;;;;;;;;;;;;;;;;;5054212;28;19913;-61
2023/02/02 02:03:04;;;;;;;;;;;;;;;;;;5070362;28;19908;-61
2023/02/02 02:05:30;;;;;;;;;;;;;;;;;;5054824;28;19909;-62
2023/02/02 02:07:56;;;;;;;;;;;;;;;;;;5051673;28;20355;-62
2023/02/02 02:10:22;;;;;;;;;;;;;;;;;;5051751;28;19920;-62
2023/02/02 02:12:48;;;;;;;;;;;;;;;;;;5052873;28;19913;-62
2023/02/02 02:17:58;;;;;;;;;;;;;;;;;;5063029;28;19932;-62
2023/02/02 02:28:38;;;;;;;;;;;;;;;;;;5071605;28;19915;-60
2023/02/02 02:31:04;;;;;;;;;;;;;;;;;;5071605;28;19909;-60
2023/02/02 02:33:30;;;;;;;;;;;;;;;;;;5071640;28;19920;-60
2023/02/02 02:35:57;;;;;;;;;;;;;;;;;;5071535;28;19908;-62
2023/02/02 02:38:23;;;;;;;;;;;;;;;;;;5060809;28;19916;-62
2023/02/02 02:40:49;;;;;;;;;;;;;;;;;;5051596;28;19909;-62
2023/02/02 02:43:15;;;;;;;;;;;;;;;;;;5051418;28;19909;-62
2023/02/02 02:45:41;;;;;;;;;;;;;;;;;;5051343;28;20404;-61
2023/02/02 02:48:07;;;;;;;;;;;;;;;;;;5051356;28;20289;-60
2023/02/02 02:50:33;;;;;;;;;;;;;;;;;;5051573;28;19999;-60
2023/02/02 02:52:59;;;;;;;;;;;;;;;;;;5068369;28;20019;-60
2023/02/02 02:55:24;;;;;;;;;;;;;;;;;;5071201;28;19912;-58
2023/02/02 02:57:50;;;;;;;;;;;;;;;;;;5070984;28;20411;-59
2023/02/02 03:00:16;;;;;;;;;;;;;;;;;;5071036;28;19912;-61
2023/02/02 03:02:42;;;;;;;;;;;;;;;;;;5071535;28;19912;-60
2023/02/02 03:05:08;;;;;;;;;;;;;;;;;;5070736;28;19912;-62
2023/02/02 03:07:34;;;;;;;;;;;;;;;;;;5071167;28;20345;-62
2023/02/02 03:10:00;;;;;;;;;;;;;;;;;;5072370;28;19917;-61
2023/02/02 03:12:26;;;;;;;;;;;;;;;;;;5074685;28;19916;-60
2023/02/02 03:14:52;;;;;;;;;;;;;;;;;;5074649;28;19984;-62
2023/02/02 03:17:18;;;;;;;;;;;;;;;;;;5073705;28;20394;-62
2023/02/02 03:19:44;;;;;;;;;;;;;;;;;;5074406;28;20046;-62
2023/02/02 03:22:10;;;;;;;;;;;;;;;;;;5074039;28;19912;-63
2023/02/02 03:24:35;;;;;;;;;;;;;;;;;;5074479;28;19909;-63
2023/02/02 03:27:01;;;;;;;;;;;;;;;;;;5074065;28;19916;-62
2023/02/02 03:29:27;;;;;;;;;;;;;;;;;;5074475;28;19912;-60
2023/02/02 03:31:53;;;;;;;;;;;;;;;;;;5073897;28;20387;-60
2023/02/02 03:34:19;;;;;;;;;;;;;;;;;;5072801;28;20026;-55
2023/02/02 03:36:45;;;;;;;;;;;;;;;;;;5072207;28;19913;-60
2023/02/02 03:39:11;;;;;;;;;;;;;;;;;;5073038;28;19922;-59
2023/02/02 03:41:37;;;;;;;;;;;;;;;;;;5074186;28;19915;-61
2023/02/02 03:44:03;;;;;;;;;;;;;;;;;;5074096;28;20283;-60
2023/02/02 03:46:29;;;;;;;;;;;;;;;;;;5073029;28;19912;-60
2023/02/02 03:48:55;;;;;;;;;;;;;;;;;;5059705;28;20403;-58
2023/02/02 03:51:21;;;;;;;;;;;;;;;;;;5062526;28;20335;-60
2023/02/02 03:53:46;;;;;;;;;;;;;;;;;;5057670;28;20257;-61
2023/02/02 03:56:12;;;;;;;;;;;;;;;;;;5066028;28;19950;-63
2023/02/02 03:58:38;;;;;;;;;;;;;;;;;;5073627;28;19917;-60
2023/02/02 04:01:04;;;;;;;;;;;;;;;;;;5063941;28;19931;-61
2023/02/02 04:03:30;;;;;;;;;;;;;;;;;;5054175;28;19912;-60
2023/02/02 04:05:56;;;;;;;;;;;;;;;;;;5054019;28;20012;-60
2023/02/02 04:08:22;;;;;;;;;;;;;;;;;;5067374;28;20009;-60
2023/02/02 04:10:48;;;;;;;;;;;;;;;;;;5061649;28;19920;-60
2023/02/02 04:13:14;;;;;;;;;;;;;;;;;;5053680;28;19912;-60
2023/02/02 04:15:40;;;;;;;;;;;;;;;;;;5056909;28;19913;-59
2023/02/02 04:18:06;;;;;;;;;;;;;;;;;;5058184;28;19913;-58
2023/02/02 04:20:32;;;;;;;;;;;;;;;;;;5056083;28;19923;-60
2023/02/02 04:22:58;;;;;;;;;;;;;;;;;;5059869;28;19912;-60
2023/02/02 04:25:24;;;;;;;;;;;;;;;;;;5073266;28;19909;-62
2023/02/02 04:27:49;;;;;;;;;;;;;;;;;;5073509;28;20281;-60
2023/02/02 04:30:15;;;;;;;;;;;;;;;;;;5059909;28;20011;-59
2023/02/02 04:32:41;;;;;;;;;;;;;;;;;;5061757;28;20452;-61
2023/02/02 04:35:07;;;;;;;;;;;;;;;;;;5049529;28;19929;-62
2023/02/02 04:37:33;;;;;;;;;;;;;;;;;;5072802;28;20007;-61
2023/02/02 04:39:59;;;;;;;;;;;;;;;;;;5064339;28;20000;-62
2023/02/02 04:42:25;;;;;;;;;;;;;;;;;;5062782;28;19967;-60
2023/02/02 04:44:51;;;;;;;;;;;;;;;;;;5065658;28;19915;-63
2023/02/02 04:47:17;;;;;;;;;;;;;;;;;;5061431;28;20054;-60
2023/02/02 04:49:43;;;;;;;;;;;;;;;;;;5073282;28;20045;-59
2023/02/02 04:52:09;;;;;;;;;;;;;;;;;;5062494;28;20003;-59
2023/02/02 04:54:34;;;;;;;;;;;;;;;;;;5065084;28;20452;-59
2023/02/02 04:57:00;;;;;;;;;;;;;;;;;;5072757;28;19995;-58
2023/02/02 04:59:26;;;;;;;;;;;;;;;;;;5072676;28;20007;-56
2023/02/02 05:01:52;;;;;;;;;;;;;;;;;;5052012;28;19915;-58
2023/02/02 05:04:18;;;;;;;;;;;;;;;;;;5036424;28;20352;-59
2023/02/02 05:06:44;;;;;;;;;;;;;;;;;;5032707;28;19967;-62
2023/02/02 05:09:10;;;;;;;;;;;;;;;;;;5032646;28;19951;-60
2023/02/02 05:11:37;;;;;;;;;;;;;;;;;;5032712;28;19910;-58
2023/02/02 05:14:04;;;;;;;;;;;;;;;;;;5032708;28;19913;-62
2023/02/02 05:16:30;;;;;;;;;;;;;;;;;;5047831;28;19909;-59
2023/02/02 05:18:56;;;;;;;;;;;;;;;;;;5032649;28;20437;-62
2023/02/02 05:21:22;;;;;;;;;;;;;;;;;;5032522;28;19919;-61
2023/02/02 05:23:48;;;;;;;;;;;;;;;;;;5047753;28;20025;-58
2023/02/02 05:26:14;;;;;;;;;;;;;;;;;;5032345;28;20398;-60
2023/02/02 05:28:41;;;;;;;;;;;;;;;;;;5032682;28;20022;-60
2023/02/02 05:31:07;;;;;;;;;;;;;;;;;;5032189;28;19913;-60
2023/02/02 05:33:33;;;;;;;;;;;;;;;;;;5031981;28;20397;-57
2023/02/02 05:35:59;;;;;;;;;;;;;;;;;;5032163;28;19909;-60
2023/02/02 05:38:25;;;;;;;;;;;;;;;;;;5032128;28;19914;-58
2023/02/02 05:40:51;;;;;;;;;;;;;;;;;;5032326;28;20004;-57
2023/02/02 05:43:17;;;;;;;;;;;;;;;;;;5032470;28;20309;-58
2023/02/02 05:45:43;;;;;;;;;;;;;;;;;;5032071;28;20004;-62
2023/02/02 05:48:09;;;;;;;;;;;;;;;;;;5046633;28;19960;-62
2023/02/02 05:50:34;;;;;;;;;;;;;;;;;;5051972;28;19955;-62
2023/02/02 05:53:00;;;;;;;;;;;;;;;;;;5050589;28;20020;-62
2023/02/02 05:55:26;;;;;;;;;;;;;;;;;;5051839;28;19912;-62
2023/02/02 05:57:52;;;;;;;;;;;;;;;;;;5051852;28;20403;-62
2023/02/02 06:00:18;;;;;;;;;;;;;;;;;;5052253;28;19963;-60
2023/02/02 06:02:44;;;;;;;;;;;;;;;;;;5051940;28;19950;-58
2023/02/02 06:05:10;;;;;;;;;;;;;;;;;;5051624;28;19909;-60
2023/02/02 06:07:36;;;;;;;;;;;;;;;;;;5050458;28;19940;-59
2023/02/02 06:10:02;;;;;;;;;;;;;;;;;;5051707;28;19909;-59
2023/02/02 06:12:28;;;;;;;;;;;;;;;;;;5051891;28;19904;-59
2023/02/02 06:14:54;;;;;;;;;;;;;;;;;;5050357;28;19913;-58
2023/02/02 06:17:20;;;;;;;;;;;;;;;;;;5051761;28;20385;-55
2023/02/02 06:19:45;;;;;;;;;;;;;;;;;;5051594;28;20365;-56
2023/02/02 06:22:11;;;;;;;;;;;;;;;;;;5051524;28;19912;-56
2023/02/02 06:24:37;;;;;;;;;;;;;;;;;;5051628;28;20406;-62
2023/02/02 06:27:03;;;;;;;;;;;;;;;;;;5051945;28;19931;-59
2023/02/02 06:29:29;;;;;;;;;;;;;;;;;;5051633;28;20369;-59
2023/02/02 06:31:55;;;;;;;;;;;;;;;;;;5051660;28;19915;-62
2023/02/02 06:34:21;;;;;;;;;;;;;;;;;;5051330;28;20369;-60
2023/02/02 06:36:47;;;;;;;;;;;;;;;;;;5051475;28;19919;-62
2023/02/02 06:39:13;;;;;;;;;;;;;;;;;;5051624;28;19909;-61
2023/02/02 06:41:39;;;;;;;;;;;;;;;;;;5051845;28;19962;-62
2023/02/02 06:44:05;;;;;;;;;;;;;;;;;;5054173;28;20300;-55
2023/02/02 06:46:31;;;;;;;;;;;;;;;;;;5053704;28;19908;-56
2023/02/02 06:48:57;;;;;;;;;;;;;;;;;;5055279;28;19919;-54
2023/02/02 06:51:23;;;;;;;;;;;;;;;;;;5055238;28;19916;-54
2023/02/02 06:53:49;;;;;;;;;;;;;;;;;;5055016;28;19921;-51
2023/02/02 06:56:15;;;;;;;;;;;;;;;;;;5053694;28;19909;-58
2023/02/02 06:58:41;;;;;;;;;;;;;;;;;;5053491;28;19915;-58
2023/02/02 07:01:07;;;;;;;;;;;;;;;;;;5055025;28;19909;-56
2023/02/02 07:03:33;;;;;;;;;;;;;;;;;;5053692;28;20289;-57
2023/02/02 07:05:58;;;;;;;;;;;;;;;;;;5055282;28;19909;-59
2023/02/02 07:08:24;;;;;;;;;;;;;;;;;;5054850;28;20381;-59
2023/02/02 07:10:50;;;;;;;;;;;;;;;;;;5055115;28;19909;-61
2023/02/02 07:13:16;;;;;;;;;;;;;;;;;;5054873;28;19920;-60
2023/02/02 07:15:42;;;;;;;;;;;;;;;;;;5054701;28;19913;-61
2023/02/02 07:18:08;;;;;;;;;;;;;;;;;;5054584;28;20289;-60
2023/02/02 07:20:34;;;;;;;;;;;;;;;;;;5054625;28;20289;-60
2023/02/02 07:23:01;;;;;;;;;;;;;;;;;;5054695;28;20361;-62
2023/02/02 07:25:27;;;;;;;;;;;;;;;;;;5054582;28;20034;-59
2023/02/02 07:27:53;;;;;;;;;;;;;;;;;;5054579;28;19951;-59
2023/02/02 07:30:19;;;;;;;;;;;;;;;;;;5053413;28;19998;-60
2023/02/02 07:32:45;;;;;;;;;;;;;;;;;;5054393;28;19916;-60
2023/02/02 07:35:10;;;;;;;;;;;;;;;;;;5052986;28;19932;-60
2023/02/02 07:37:36;;;;;;;;;;;;;;;;;;5054324;28;20265;-61
2023/02/02 07:40:02;;;;;;;;;;;;;;;;;;5054305;28;19913;-61
2023/02/02 07:42:28;;;;;;;;;;;;;;;;;;5054343;28;19916;-59
2023/02/02 07:44:54;;;;;;;;;;;;;;;;;;5054076;28;19913;-61
2023/02/02 07:47:20;;;;;;;;;;;;;;;;;;5092162;22;19955;-53
2023/02/02 07:49:46;;;;;;;;;;;;;;;;;;5113485;28;19955;-52
2023/02/02 07:52:12;;;;;;;;;;;;;;;;;;5113597;28;19908;-55
2023/02/02 07:54:38;;;;;;;;;;;;;;;;;;5113911;28;19916;-51
2023/02/02 07:57:04;;;;;;;;;;;;;;;;;;5114662;28;19908;-51
2023/02/02 07:59:30;;;;;;;;;;;;;;;;;;5114707;28;19908;-51
2023/02/02 08:01:56;;;;;;;;;;;;;;;;;;5114518;28;19908;-52
2023/02/02 08:04:22;;;;;;;;;;;;;;;;;;5113085;28;19912;-55
2023/02/02 08:06:47;;;;;;;;;;;;;;;;;;5114439;28;19908;-50
2023/02/02 08:09:13;;;;;;;;;;;;;;;;;;5114327;28;19918;-50
2023/02/02 08:11:39;;;;;;;;;;;;;;;;;;5114644;28;19908;-52
2023/02/02 08:14:05;;;;;;;;;;;;;;;;;;5114445;28;19911;-51
2023/02/02 08:16:31;;;;;;;;;;;;;;;;;;5114199;28;19915;-52
2023/02/02 08:18:57;;;;;;;;;;;;;;;;;;5114166;28;19912;-51
2023/02/02 08:21:23;;;;;;;;;;;;;;;;;;5114508;28;20010;-53
2023/02/02 08:23:49;;;;;;;;;;;;;;;;;;5113061;28;19994;-54
2023/02/02 08:26:15;;;;;;;;;;;;;;;;;;5114155;28;19969;-54
2023/02/02 08:28:41;;;;;;;;;;;;;;;;;;5114039;28;19953;-55
2023/02/02 08:31:07;;;;;;;;;;;;;;;;;;5113992;28;19908;-54
2023/02/02 08:33:33;;;;;;;;;;;;;;;;;;5113821;28;20476;-52
2023/02/02 08:35:59;;;;;;;;;;;;;;;;;;5113879;28;19961;-53
2023/02/02 08:38:25;;;;;;;;;;;;;;;;;;5113859;28;19949;-53
2023/02/02 08:40:51;;;;;;;;;;;;;;;;;;5113953;28;19995;-52
2023/02/02 08:43:17;;;;;;;;;;;;;;;;;;5113879;28;19908;-50
2023/02/02 08:45:43;;;;;;;;;;;;;;;;;;5113487;28;19917;-50
2023/02/02 08:48:09;;;;;;;;;;;;;;;;;;5113445;28;19912;-51
2023/02/02 08:50:35;;;;;;;;;;;;;;;;;;5113681;28;20294;-51
2023/02/02 08:53:01;;;;;;;;;;;;;;;;;;5113610;28;19953;-53
2023/02/02 08:55:26;;;;;;;;;;;;;;;;;;5113580;28;19935;-51
2023/02/02 08:57:52;;;;;;;;;;;;;;;;;;5113398;28;20361;-51
2023/02/02 09:00:18;;;;;;;;;;;;;;;;;;5113800;28;20283;-53
2023/02/02 09:02:44;;;;;;;;;;;;;;;;;;5113370;28;19911;-53
2023/02/02 09:05:10;;;;;;;;;;;;;;;;;;5112129;28;19907;-52
2023/02/02 09:07:36;;;;;;;;;;;;;;;;;;5112303;28;19915;-53
2023/02/02 09:10:02;;;;;;;;;;;;;;;;;;5113388;28;19930;-53
2023/02/02 09:12:28;;;;;;;;;;;;;;;;;;5111876;28;20375;-53
2023/02/02 09:14:54;;;;;;;;;;;;;;;;;;5112761;28;19916;-52
2023/02/02 09:17:21;;;;;;;;;;;;;;;;;;5113085;28;20423;-51
2023/02/02 09:19:47;;;;;;;;;;;;;;;;;;5111860;28;20014;-51
2023/02/02 09:22:12;;;;;;;;;;;;;;;;;;5113044;28;19943;-54
2023/02/02 09:24:38;;;;;;;;;;;;;;;;;;5112925;28;19970;-52
2023/02/02 09:27:04;;;;;;;;;;;;;;;;;;5112974;28;20291;-53
2023/02/02 09:29:30;;;;;;;;;;;;;;;;;;5112768;28;20372;-53
2023/02/02 09:31:56;;;;;;;;;;;;;;;;;;5112859;28;19908;-53
2023/02/02 09:34:22;;;;;;;;;;;;;;;;;;5112778;28;19911;-54
2023/02/02 09:36:48;;;;;;;;;;;;;;;;;;5112799;28;19961;-52
2023/02/02 09:39:15;;;;;;;;;;;;;;;;;;5112876;28;19908;-53
2023/02/02 09:41:41;;;;;;;;;;;;;;;;;;5112843;28;19915;-53
2023/02/02 09:44:07;;;;;;;;;;;;;;;;;;5112704;28;19911;-51
2023/02/02 09:46:33;;;;;;;;;;;;;;;;;;5112479;28;19908;-53
2023/02/02 09:48:59;;;;;;;;;;;;;;;;;;5112541;28;20397;-54
2023/02/02 09:51:24;;;;;;;;;;;;;;;;;;5112631;28;19908;-54
2023/02/02 09:53:51;;;;;;;;;;;;;;;;;;5112583;28;19912;-56
2023/02/02 09:56:16;;;;;;;;;;;;;;;;;;5112423;28;19908;-55
2023/02/02 09:58:42;;;;;;;;;;;;;;;;;;5112416;28;19908;-54
2023/02/02 10:01:08;;;;;;;;;;;;;;;;;;5112699;28;20574;-51
2023/02/02 10:03:34;;;;;;;;;;;;;;;;;;5112654;28;20375;-51
2023/02/02 10:06:00;;;;;;;;;;;;;;;;;;5112469;28;19908;-52
2023/02/02 10:08:27;;;;;;;;;;;;;;;;;;5112508;28;20386;-51
2023/02/02 10:10:53;;;;;;;;;;;;;;;;;;5112459;28;19908;-51
2023/02/02 10:13:20;;;;;;;;;;;;;;;;;;5112318;28;19912;-54
2023/02/02 10:15:48;;;;;;;;;;;;;;;;;;5112382;28;19961;-51
2023/02/02 10:18:13;;;;;;;;;;;;;;;;;;5113766;28;19914;-51
2023/02/02 10:20:39;;;;;;;;;;;;;;;;;;5116683;28;19908;-51
2023/02/02 10:23:05;;;;;;;;;;;;;;;;;;5115277;28;19952;-54
2023/02/02 10:25:31;;;;;;;;;;;;;;;;;;5116425;28;19908;-51
2023/02/02 10:27:57;;;;;;;;;;;;;;;;;;5116249;28;19904;-53
2023/02/02 10:30:23;;;;;;;;;;;;;;;;;;5116480;28;19908;-53
2023/02/02 10:32:49;;;;;;;;;;;;;;;;;;5116430;28;19904;-53
2023/02/02 10:35:15;;;;;;;;;;;;;;;;;;5116131;28;19919;-52
2023/02/02 10:37:41;;;;;;;;;;;;;;;;;;5116306;28;19915;-52
2023/02/02 10:40:07;;;;;;;;;;;;;;;;;;5116281;28;20360;-51
2023/02/02 10:42:33;;;;;;;;;;;;;;;;;;5116172;28;19976;-51
2023/02/02 10:44:59;;;;;;;;;;;;;;;;;;5115979;28;20363;-51
2023/02/02 10:47:25;;;;;;;;;;;;;;;;;;5115897;28;19915;-54
2023/02/02 10:49:51;;;;;;;;;;;;;;;;;;5116113;28;19907;-52
2023/02/02 10:52:17;;;;;;;;;;;;;;;;;;5116058;28;19907;-55
2023/02/02 10:54:43;;;;;;;;;;;;;;;;;;5114437;28;20359;-52
2023/02/02 10:57:09;;;;;;;;;;;;;;;;;;5115681;28;20340;-51
2023/02/02 10:59:34;;;;;;;;;;;;;;;;;;5115870;28;19912;-53
2023/02/02 11:02:00;;;;;;;;;;;;;;;;;;5115851;28;19908;-51
2023/02/02 11:07:18;;;;;;;;;;;;;;;;;;5115677;28;19956;-51
2023/02/02 11:09:44;;;;;;;;;;;;;;;;;;5115506;28;20368;-52
2023/02/02 11:12:10;;;;;;;;;;;;;;;;;;5115599;28;19960;-54
2023/02/02 11:14:36;;;;;;;;;;;;;;;;;;5115351;28;19911;-54
2023/02/02 11:17:02;;;;;;;;;;;;;;;;;;5115499;28;19994;-53
2023/02/02 11:19:28;;;;;;;;;;;;;;;;;;5115471;28;19915;-54
2023/02/02 11:21:55;;;;;;;;;;;;;;;;;;5115383;28;19907;-54
2023/02/02 11:24:21;;;;;;;;;;;;;;;;;;5113831;28;20295;-50
2023/02/02 11:26:47;;;;;;;;;;;;;;;;;;5113011;28;19912;-51
2023/02/02 11:29:13;;;;;;;;;;;;;;;;;;5097422;27;19916;-54
2023/02/02 11:31:39;;;;;;;;;;;;;;;;;;5112904;28;19939;-51
2023/02/02 11:34:05;;;;;;;;;;;;;;;;;;5115309;28;20286;-51
2023/02/02 11:36:31;;;;;;;;;;;;;;;;;;5114726;28;20291;-53
2023/02/02 11:38:57;;;;;;;;;;;;;;;;;;5105543;28;19916;-53
2023/02/02 11:41:23;;;;;;;;;;;;;;;;;;5094508;28;19912;-52
2023/02/02 11:43:49;;;;;;;;;;;;;;;;;;5094205;28;20365;-55
2023/02/02 11:46:15;;;;;;;;;;;;;;;;;;5102924;28;20010;-52
2023/02/02 11:48:41;;;;;;;;;;;;;;;;;;5113516;28;19992;-50
2023/02/02 11:51:07;;;;;;;;;;;;;;;;;;5112770;28;20015;-53
2023/02/02 11:53:34;;;;;;;;;;;;;;;;;;5114681;28;19916;-51
2023/02/02 11:55:59;;;;;;;;;;;;;;;;;;5114298;28;19912;-56
2023/02/02 11:58:28;;;;;;;;;;;;;;;;;;5114645;28;19954;-51
2023/02/02 12:00:54;;;;;;;;;;;;;;;;;;5101717;28;20356;-51
2023/02/02 12:03:20;;;;;;;;;;;;;;;;;;5104903;28;19915;-51
2023/02/02 12:05:48;;;;;;;;;;;;;;;;;;5105649;28;19922;-52
2023/02/02 12:08:14;;;;;;;;;;;;;;;;;;5114485;28;19970;-53
2023/02/02 12:10:40;;;;;;;;;;;;;;;;;;5100153;28;20288;-51
2023/02/02 12:13:06;;;;;;;;;;;;;;;;;;5093834;28;19913;-51
2023/02/02 12:15:32;;;;;;;;;;;;;;;;;;5095057;28;19912;-51
2023/02/02 12:17:58;;;;;;;;;;;;;;;;;;5093530;28;19915;-52
2023/02/02 12:20:24;;;;;;;;;;;;;;;;;;5093761;28;19923;-53
2023/02/02 12:22:50;;;;;;;;;;;;;;;;;;5093933;28;19931;-54
2023/02/02 12:25:17;;;;;;;;;;;;;;;;;;5107201;28;20333;-52
2023/02/02 12:27:43;;;;;;;;;;;;;;;;;;5107767;28;20010;-54
2023/02/02 12:30:09;;;;;;;;;;;;;;;;;;5099189;28;20063;-51
2023/02/02 12:32:35;;;;;;;;;;;;;;;;;;5093659;28;20011;-51
2023/02/02 12:35:01;;;;;;;;;;;;;;;;;;5095306;28;20408;-54
2023/02/02 12:37:27;;;;;;;;;;;;;;;;;;5104422;28;19969;-54
2023/02/02 12:39:54;;;;;;;;;;;;;;;;;;5114050;28;20276;-54
2023/02/02 12:42:20;;;;;;;;;;;;;;;;;;5113756;28;20380;-52
2023/02/02 12:44:46;;;;;;;;;;;;;;;;;;5112150;28;19918;-55
2023/02/02 12:47:14;;;;;;;;;;;;;;;;;;5094236;28;20299;-52
2023/02/02 12:49:39;;;;;;;;;;;;;;;;;;5093157;28;20280;-52
2023/02/02 12:52:06;;;;;;;;;;;;;;;;;;5093280;28;20194;-51
2023/02/02 12:54:34;;;;;;;;;;;;;;;;;;5092961;28;19919;-53
2023/02/02 12:57:00;;;;;;;;;;;;;;;;;;5093204;28;20007;-54
2023/02/02 12:59:26;;;;;;;;;;;;;;;;;;5112218;28;19959;-51
2023/02/02 13:01:52;;;;;;;;;;;;;;;;;;5113061;28;20007;-54
2023/02/02 13:04:18;;;;;;;;;;;;;;;;;;5096647;28;19908;-55
2023/02/02 13:06:44;;;;;;;;;;;;;;;;;;5104447;28;20011;-53
2023/02/02 13:09:10;;;;;;;;;;;;;;;;;;5113139;28;20390;-54
2023/02/02 13:11:36;;;;;;;;;;;;;;;;;;5113278;28;20307;-51
2023/02/02 13:14:02;;;;;;;;;;;;;;;;;;5110119;28;20485;-52
2023/02/02 13:16:28;;;;;;;;;;;;;;;;;;5111441;28;20314;-54
2023/02/02 13:18:54;;;;;;;;;;;;;;;;;;5112966;28;19911;-54
2023/02/02 13:21:20;;;;;;;;;;;;;;;;;;5113185;28;20016;-51
2023/02/02 13:23:45;;;;;;;;;;;;;;;;;;5101686;28;19908;-50
2023/02/02 13:26:12;;;;;;;;;;;;;;;;;;5091276;28;20426;-51
2023/02/02 13:28:38;;;;;;;;;;;;;;;;;;5099392;28;19916;-54
2023/02/02 13:31:04;;;;;;;;;;;;;;;;;;5101766;28;19923;-53
2023/02/02 13:33:30;;;;;;;;;;;;;;;;;;5112753;28;19965;-51
2023/02/02 13:35:56;;;;;;;;;;;;;;;;;;5112768;28;19908;-51
2023/02/02 13:38:22;;;;;;;;;;;;;;;;;;5106238;28;19912;-51
2023/02/02 13:40:48;;;;;;;;;;;;;;;;;;5108301;28;19912;-52
2023/02/02 13:43:14;;;;;;;;;;;;;;;;;;5108138;28;19912;-53
2023/02/02 13:45:40;;;;;;;;;;;;;;;;;;5090876;28;19913;-53
2023/02/02 13:48:06;;;;;;;;;;;;;;;;;;5091228;28;19927;-52
2023/02/02 13:50:32;;;;;;;;;;;;;;;;;;5092337;28;19908;-54
2023/02/02 13:52:58;;;;;;;;;;;;;;;;;;5090272;28;20014;-51
2023/02/02 13:55:24;;;;;;;;;;;;;;;;;;5106373;28;20053;-51
2023/02/02 13:57:51;;;;;;;;;;;;;;;;;;5111952;28;20351;-53
2023/02/02 14:00:17;;;;;;;;;;;;;;;;;;5112130;28;20291;-53
2023/02/02 14:02:43;;;;;;;;;;;;;;;;;;5110870;28;19919;-54
2023/02/02 14:05:09;;;;;;;;;;;;;;;;;;5110773;28;19999;-54
2023/02/02 14:07:35;;;;;;;;;;;;;;;;;;5112162;28;19959;-55
2023/02/02 14:10:03;;;;;;;;;;;;;;;;;;5112262;28;19919;-51
2023/02/02 14:12:29;;;;;;;;;;;;;;;;;;5112450;28;20380;-51
2023/02/02 14:14:55;;;;;;;;;;;;;;;;;;5096016;28;19916;-52
2023/02/02 14:17:21;;;;;;;;;;;;;;;;;;5091906;28;20441;-50
2023/02/02 14:19:46;;;;;;;;;;;;;;;;;;5090665;28;19912;-52
2023/02/02 14:22:12;;;;;;;;;;;;;;;;;;5091924;28;19912;-52
2023/02/02 14:24:38;;;;;;;;;;;;;;;;;;5091994;28;20411;-53
2023/02/02 14:27:04;;;;;;;;;;;;;;;;;;5091822;28;20383;-51
2023/02/02 14:29:30;;;;;;;;;;;;;;;;;;5101969;28;19912;-52
2023/02/02 14:31:56;;;;;;;;;;;;;;;;;;5111643;28;20010;-53
2023/02/02 14:34:22;;;;;;;;;;;;;;;;;;5110873;28;19964;-53
2023/02/02 14:36:48;;;;;;;;;;;;;;;;;;5111838;28;19912;-52
2023/02/02 14:39:14;;;;;;;;;;;;;;;;;;5099448;28;20430;-51
2023/02/02 14:44:25;;;;;;;;;;;;;;;;;;5103553;28;19919;-50
2023/02/02 14:46:50;;;;;;;;;;;;;;;;;;5091462;28;19912;-51
2023/02/02 14:49:16;;;;;;;;;;;;;;;;;;5096563;28;19916;-51
2023/02/02 14:51:44;;;;;;;;;;;;;;;;;;5111406;28;19915;-54
2023/02/02 14:54:11;;;;;;;;;;;;;;;;;;5091690;28;20399;-52
2023/02/02 14:56:37;;;;;;;;;;;;;;;;;;5091500;28;19912;-51
2023/02/02 14:59:03;;;;;;;;;;;;;;;;;;5099288;28;20027;-52
2023/02/02 15:01:29;;;;;;;;;;;;;;;;;;5111652;28;19919;-50
2023/02/02 15:03:55;;;;;;;;;;;;;;;;;;5112617;28;19937;-51
2023/02/02 15:06:21;;;;;;;;;;;;;;;;;;5115535;28;19912;-51
2023/02/02 15:08:47;;;;;;;;;;;;;;;;;;5114855;28;19923;-53
2023/02/02 15:11:28;;;;;;;;;;;;;;;;;;5099981;28;19912;-52
2023/02/02 15:13:54;;;;;;;;;;;;;;;;;;5112932;28;19935;-51
2023/02/02 15:16:20;;;;;;;;;;;;;;;;;;5115145;28;19911;-53
2023/02/02 15:18:46;;;;;;;;;;;;;;;;;;5110716;27;19912;-52
2023/02/02 15:21:12;;;;;;;;;;;;;;;;;;5114012;28;19940;-50
2023/02/02 15:23:38;;;;;;;;;;;;;;;;;;5113856;28;20373;-51
2023/02/02 15:26:04;;;;;;;;;;;;;;;;;;5114929;28;20452;-52
2023/02/02 15:28:30;;;;;;;;;;;;;;;;;;5104834;28;19987;-54
2023/02/02 15:30:55;;;;;;;;;;;;;;;;;;5094785;28;20019;-52
2023/02/02 15:33:22;;;;;;;;;;;;;;;;;;5093398;28;19977;-50
2023/02/02 15:35:48;;;;;;;;;;;;;;;;;;5094505;28;19920;-50
2023/02/02 15:38:14;;;;;;;;;;;;;;;;;;5113579;28;19922;-54
2023/02/02 15:40:40;;;;;;;;;;;;;;;;;;5114013;28;19949;-51
2023/02/02 15:43:08;;;;;;;;;;;;;;;;;;5099780;28;19911;-52
2023/02/02 15:45:34;;;;;;;;;;;;;;;;;;5115032;28;19907;-51
2023/02/02 15:48:00;;;;;;;;;;;;;;;;;;5107702;28;19923;-51
2023/02/02 15:50:26;;;;;;;;;;;;;;;;;;5099560;28;19912;-51
2023/02/02 15:52:52;;;;;;;;;;;;;;;;;;5110156;28;20041;-52
2023/02/02 15:55:18;;;;;;;;;;;;;;;;;;5103095;28;19912;-52
2023/02/02 15:57:44;;;;;;;;;;;;;;;;;;5095736;28;19919;-52
2023/02/02 16:00:10;;;;;;;;;;;;;;;;;;5110163;28;19915;-51
2023/02/02 16:02:36;;;;;;;;;;;;;;;;;;5115053;28;19915;-51
2023/02/02 16:05:02;;;;;;;;;;;;;;;;;;5113066;28;19988;-55
2023/02/02 16:07:27;;;;;;;;;;;;;;;;;;5113949;28;19908;-54
2023/02/02 16:09:54;;;;;;;;;;;;;;;;;;5114399;28;19908;-54
2023/02/02 16:12:20;;;;;;;;;;;;;;;;;;5114497;28;20288;-52
2023/02/02 16:14:45;;;;;;;;;;;;;;;;;;5112667;28;19912;-54
2023/02/02 16:17:12;;;;;;;;;;;;;;;;;;5111841;28;19908;-53
2023/02/02 16:19:38;;;;;;;;;;;;;;;;;;5112331;27;19912;-53
2023/02/02 16:22:04;;;;;;;;;;;;;;;;;;5099246;28;20311;-52
2023/02/02 16:24:30;;;;;;;;;;;;;;;;;;5098836;28;20006;-55
2023/02/02 16:26:56;;;;;;;;;;;;;;;;;;5108558;28;19912;-54
2023/02/02 16:29:22;;;;;;;;;;;;;;;;;;5102310;28;19908;-52
2023/02/02 16:31:48;;;;;;;;;;;;;;;;;;5105648;28;19911;-52
2023/02/02 16:34:14;;;;;;;;;;;;;;;;;;5102101;28;19916;-55
2023/02/02 16:36:40;;;;;;;;;;;;;;;;;;5101907;28;20288;-53
2023/02/02 16:39:06;;;;;;;;;;;;;;;;;;5098538;28;20023;-54
2023/02/02 16:41:32;;;;;;;;;;;;;;;;;;5093223;28;20391;-53
2023/02/02 16:43:58;;;;;;;;;;;;;;;;;;5093696;28;20010;-54
2023/02/02 16:46:24;;;;;;;;;;;;;;;;;;5100341;28;20010;-50
2023/02/02 16:48:50;;;;;;;;;;;;;;;;;;5102048;28;20352;-53
2023/02/02 16:51:16;;;;;;;;;;;;;;;;;;5111139;28;19951;-53
2023/02/02 16:53:42;;;;;;;;;;;;;;;;;;5108664;28;19951;-54